sensor_id;sensor_type;location;lat;lon;timestamp;temperature;humidity
22645;DHT22;11489;50.834;6.752;2022-09-09T00:01:06;16.20;84.80
22645;DHT22;11489;50.834;6.752;2022-09-09T00:03:44;16.20;84.90
22645;DHT22;11489;50.834;6.752;2022-09-09T00:06:23;16.10;85.10
22645;DHT22;11489;50.834;6.752;2022-09-09T00:09:10;16.10;85.20
22645;DHT22;11489;50.834;6.752;2022-09-09T00:14:56;16.10;85.50
22645;DHT22;11489;50.834;6.752;2022-09-09T00:17:43;16.10;85.40
22645;DHT22;11489;50.834;6.752;2022-09-09T00:23:03;16.10;85.70
22645;DHT22;11489;50.834;6.752;2022-09-09T00:25:51;16.10;85.80
22645;DHT22;11489;50.834;6.752;2022-09-09T00:28:23;16.20;85.60
22645;DHT22;11489;50.834;6.752;2022-09-09T00:31:02;16.10;85.60
22645;DHT22;11489;50.834;6.752;2022-09-09T00:33:34;16.10;85.10
22645;DHT22;11489;50.834;6.752;2022-09-09T00:36:00;16.10;85.50
22645;DHT22;11489;50.834;6.752;2022-09-09T00:38:36;16.10;85.50
22645;DHT22;11489;50.834;6.752;2022-09-09T00:46:52;16.10;84.90
22645;DHT22;11489;50.834;6.752;2022-09-09T00:57:53;16.10;85.50
22645;DHT22;11489;50.834;6.752;2022-09-09T01:00:27;16.10;85.70
22645;DHT22;11489;50.834;6.752;2022-09-09T01:05:53;16.10;85.50
22645;DHT22;11489;50.834;6.752;2022-09-09T01:11:25;16.00;84.60
22645;DHT22;11489;50.834;6.752;2022-09-09T01:17:19;15.90;84.50
22645;DHT22;11489;50.834;6.752;2022-09-09T01:20:10;15.80;84.90
22645;DHT22;11489;50.834;6.752;2022-09-09T01:22:47;15.80;84.70
22645;DHT22;11489;50.834;6.752;2022-09-09T01:28:13;15.70;84.80
22645;DHT22;11489;50.834;6.752;2022-09-09T01:30:41;15.60;85.40
22645;DHT22;11489;50.834;6.752;2022-09-09T01:33:15;15.50;85.50
22645;DHT22;11489;50.834;6.752;2022-09-09T01:36:00;15.50;85.70
22645;DHT22;11489;50.834;6.752;2022-09-09T01:38:28;15.40;85.80
22645;DHT22;11489;50.834;6.752;2022-09-09T01:40:55;15.40;86.00
22645;DHT22;11489;50.834;6.752;2022-09-09T01:43:21;15.30;86.10
22645;DHT22;11489;50.834;6.752;2022-09-09T01:45:49;15.30;86.30
22645;DHT22;11489;50.834;6.752;2022-09-09T01:48:17;15.30;86.50
22645;DHT22;11489;50.834;6.752;2022-09-09T01:50:44;15.30;86.80
22645;DHT22;11489;50.834;6.752;2022-09-09T01:53:11;15.20;87.00
22645;DHT22;11489;50.834;6.752;2022-09-09T01:55:40;15.20;87.30
22645;DHT22;11489;50.834;6.752;2022-09-09T01:58:11;15.30;87.60
22645;DHT22;11489;50.834;6.752;2022-09-09T02:00:44;15.30;87.80
22645;DHT22;11489;50.834;6.752;2022-09-09T02:03:26;15.30;87.90
22645;DHT22;11489;50.834;6.752;2022-09-09T02:06:35;15.40;87.90
22645;DHT22;11489;50.834;6.752;2022-09-09T02:11:16;15.40;88.20
22645;DHT22;11489;50.834;6.752;2022-09-09T02:13:44;15.50;88.10
22645;DHT22;11489;50.834;6.752;2022-09-09T02:18:58;15.60;88.20
22645;DHT22;11489;50.834;6.752;2022-09-09T02:21:28;15.60;88.20
22645;DHT22;11489;50.834;6.752;2022-09-09T02:23:57;15.70;88.20
22645;DHT22;11489;50.834;6.752;2022-09-09T02:26:23;15.70;88.20
22645;DHT22;11489;50.834;6.752;2022-09-09T02:28:53;15.80;88.20
22645;DHT22;11489;50.834;6.752;2022-09-09T02:31:22;15.80;88.10
22645;DHT22;11489;50.834;6.752;2022-09-09T02:33:55;15.80;88.00
22645;DHT22;11489;50.834;6.752;2022-09-09T02:36:25;15.90;87.90
22645;DHT22;11489;50.834;6.752;2022-09-09T02:38:52;15.90;87.90
22645;DHT22;11489;50.834;6.752;2022-09-09T02:41:38;15.90;87.90
22645;DHT22;11489;50.834;6.752;2022-09-09T02:44:12;15.90;87.20
22645;DHT22;11489;50.834;6.752;2022-09-09T02:52:38;16.00;87.40
22645;DHT22;11489;50.834;6.752;2022-09-09T02:55:39;16.00;87.50
22645;DHT22;11489;50.834;6.752;2022-09-09T02:58:10;16.10;87.10
22645;DHT22;11489;50.834;6.752;2022-09-09T03:00:37;16.10;87.80
22645;DHT22;11489;50.834;6.752;2022-09-09T03:03:04;16.10;87.80
22645;DHT22;11489;50.834;6.752;2022-09-09T03:05:30;16.10;87.70
22645;DHT22;11489;50.834;6.752;2022-09-09T03:07:56;16.10;87.70
22645;DHT22;11489;50.834;6.752;2022-09-09T03:10:21;16.10;87.70
22645;DHT22;11489;50.834;6.752;2022-09-09T03:12:47;16.20;87.80
22645;DHT22;11489;50.834;6.752;2022-09-09T03:15:13;16.20;87.80
22645;DHT22;11489;50.834;6.752;2022-09-09T03:17:40;16.20;87.80
22645;DHT22;11489;50.834;6.752;2022-09-09T03:20:06;16.20;87.80
22645;DHT22;11489;50.834;6.752;2022-09-09T03:22:34;16.20;87.80
22645;DHT22;11489;50.834;6.752;2022-09-09T03:25:00;16.20;87.80
22645;DHT22;11489;50.834;6.752;2022-09-09T03:27:25;16.20;87.80
22645;DHT22;11489;50.834;6.752;2022-09-09T03:29:51;16.20;87.70
22645;DHT22;11489;50.834;6.752;2022-09-09T03:32:18;16.30;87.80
22645;DHT22;11489;50.834;6.752;2022-09-09T03:34:44;16.30;87.80
22645;DHT22;11489;50.834;6.752;2022-09-09T03:37:10;16.30;87.70
22645;DHT22;11489;50.834;6.752;2022-09-09T03:39:35;16.30;87.70
22645;DHT22;11489;50.834;6.752;2022-09-09T03:42:01;16.30;87.70
22645;DHT22;11489;50.834;6.752;2022-09-09T03:44:31;16.40;87.70
22645;DHT22;11489;50.834;6.752;2022-09-09T03:46:57;16.40;87.60
22645;DHT22;11489;50.834;6.752;2022-09-09T03:49:23;16.40;87.50
22645;DHT22;11489;50.834;6.752;2022-09-09T03:51:49;16.50;87.50
22645;DHT22;11489;50.834;6.752;2022-09-09T03:54:15;16.50;87.40
22645;DHT22;11489;50.834;6.752;2022-09-09T03:56:40;16.50;87.30
22645;DHT22;11489;50.834;6.752;2022-09-09T03:59:07;16.50;87.20
22645;DHT22;11489;50.834;6.752;2022-09-09T04:01:34;16.60;87.20
22645;DHT22;11489;50.834;6.752;2022-09-09T04:04:00;16.50;87.10
22645;DHT22;11489;50.834;6.752;2022-09-09T04:06:28;16.50;87.00
22645;DHT22;11489;50.834;6.752;2022-09-09T04:08:55;16.50;87.00
22645;DHT22;11489;50.834;6.752;2022-09-09T04:11:21;16.50;87.00
22645;DHT22;11489;50.834;6.752;2022-09-09T04:13:47;16.50;87.00
22645;DHT22;11489;50.834;6.752;2022-09-09T04:16:13;16.40;86.90
22645;DHT22;11489;50.834;6.752;2022-09-09T04:18:40;16.40;86.90
22645;DHT22;11489;50.834;6.752;2022-09-09T04:21:06;16.40;87.00
22645;DHT22;11489;50.834;6.752;2022-09-09T04:23:32;16.40;87.00
22645;DHT22;11489;50.834;6.752;2022-09-09T04:26:00;16.40;87.00
22645;DHT22;11489;50.834;6.752;2022-09-09T04:28:29;16.40;87.00
22645;DHT22;11489;50.834;6.752;2022-09-09T04:30:56;16.40;87.00
22645;DHT22;11489;50.834;6.752;2022-09-09T04:33:25;16.40;87.10
22645;DHT22;11489;50.834;6.752;2022-09-09T04:35:52;16.40;87.00
22645;DHT22;11489;50.834;6.752;2022-09-09T04:38:19;16.40;87.10
22645;DHT22;11489;50.834;6.752;2022-09-09T04:40:50;16.40;87.10
22645;DHT22;11489;50.834;6.752;2022-09-09T04:43:17;16.50;87.00
22645;DHT22;11489;50.834;6.752;2022-09-09T04:45:47;16.40;87.10
22645;DHT22;11489;50.834;6.752;2022-09-09T04:48:13;16.50;87.20
22645;DHT22;11489;50.834;6.752;2022-09-09T04:50:39;16.50;87.20
22645;DHT22;11489;50.834;6.752;2022-09-09T04:53:06;16.50;87.20
22645;DHT22;11489;50.834;6.752;2022-09-09T04:55:32;16.50;87.20
22645;DHT22;11489;50.834;6.752;2022-09-09T04:58:05;16.50;87.20
22645;DHT22;11489;50.834;6.752;2022-09-09T05:00:32;16.50;87.00
22645;DHT22;11489;50.834;6.752;2022-09-09T05:03:05;16.50;87.20
22645;DHT22;11489;50.834;6.752;2022-09-09T05:08:29;16.60;86.00
22645;DHT22;11489;50.834;6.752;2022-09-09T05:10:55;16.60;87.20
22645;DHT22;11489;50.834;6.752;2022-09-09T05:13:21;16.60;87.10
22645;DHT22;11489;50.834;6.752;2022-09-09T05:16:04;16.60;87.10
22645;DHT22;11489;50.834;6.752;2022-09-09T05:18:32;16.60;86.70
22645;DHT22;11489;50.834;6.752;2022-09-09T05:21:16;16.60;87.00
22645;DHT22;11489;50.834;6.752;2022-09-09T05:24:48;16.60;86.50
22645;DHT22;11489;50.834;6.752;2022-09-09T05:27:43;16.60;85.90
22645;DHT22;11489;50.834;6.752;2022-09-09T05:30:12;16.60;86.50
22645;DHT22;11489;50.834;6.752;2022-09-09T05:32:49;16.60;86.90
22645;DHT22;11489;50.834;6.752;2022-09-09T05:35:37;16.60;86.50
22645;DHT22;11489;50.834;6.752;2022-09-09T05:38:03;16.60;86.70
22645;DHT22;11489;50.834;6.752;2022-09-09T05:40:33;16.60;86.90
22645;DHT22;11489;50.834;6.752;2022-09-09T05:43:00;16.60;86.70
22645;DHT22;11489;50.834;6.752;2022-09-09T05:45:26;16.60;87.00
22645;DHT22;11489;50.834;6.752;2022-09-09T05:47:57;16.60;87.10
22645;DHT22;11489;50.834;6.752;2022-09-09T05:50:25;16.60;87.00
22645;DHT22;11489;50.834;6.752;2022-09-09T05:52:54;16.70;87.10
22645;DHT22;11489;50.834;6.752;2022-09-09T05:55:19;16.70;87.00
22645;DHT22;11489;50.834;6.752;2022-09-09T05:57:48;16.70;87.00
22645;DHT22;11489;50.834;6.752;2022-09-09T06:00:14;16.80;86.80
22645;DHT22;11489;50.834;6.752;2022-09-09T06:02:41;16.80;87.00
22645;DHT22;11489;50.834;6.752;2022-09-09T06:05:07;16.80;86.80
22645;DHT22;11489;50.834;6.752;2022-09-09T06:07:33;16.90;86.80
22645;DHT22;11489;50.834;6.752;2022-09-09T06:10:02;16.90;86.60
22645;DHT22;11489;50.834;6.752;2022-09-09T06:12:28;16.90;86.30
22645;DHT22;11489;50.834;6.752;2022-09-09T06:14:53;17.00;86.30
22645;DHT22;11489;50.834;6.752;2022-09-09T06:17:19;17.00;86.20
22645;DHT22;11489;50.834;6.752;2022-09-09T06:19:45;17.00;86.00
22645;DHT22;11489;50.834;6.752;2022-09-09T06:22:10;17.00;85.90
22645;DHT22;11489;50.834;6.752;2022-09-09T06:24:37;17.00;85.80
22645;DHT22;11489;50.834;6.752;2022-09-09T06:27:03;17.00;85.70
22645;DHT22;11489;50.834;6.752;2022-09-09T06:29:30;17.00;85.70
22645;DHT22;11489;50.834;6.752;2022-09-09T06:31:56;17.00;85.60
22645;DHT22;11489;50.834;6.752;2022-09-09T06:34:23;17.00;85.60
22645;DHT22;11489;50.834;6.752;2022-09-09T06:36:49;17.10;85.60
22645;DHT22;11489;50.834;6.752;2022-09-09T06:39:14;17.10;85.70
22645;DHT22;11489;50.834;6.752;2022-09-09T06:41:41;17.10;85.90
22645;DHT22;11489;50.834;6.752;2022-09-09T06:44:07;17.10;86.10
22645;DHT22;11489;50.834;6.752;2022-09-09T06:46:33;17.20;86.40
22645;DHT22;11489;50.834;6.752;2022-09-09T06:49:01;17.20;86.40
22645;DHT22;11489;50.834;6.752;2022-09-09T06:51:29;17.30;86.50
22645;DHT22;11489;50.834;6.752;2022-09-09T06:53:57;17.40;86.40
22645;DHT22;11489;50.834;6.752;2022-09-09T06:56:32;17.50;86.20
22645;DHT22;11489;50.834;6.752;2022-09-09T06:59:00;17.60;85.30
22645;DHT22;11489;50.834;6.752;2022-09-09T07:01:30;17.60;85.80
22645;DHT22;11489;50.834;6.752;2022-09-09T07:03:58;17.80;85.70
22645;DHT22;11489;50.834;6.752;2022-09-09T07:06:29;17.80;85.40
22645;DHT22;11489;50.834;6.752;2022-09-09T07:09:00;17.90;85.30
22645;DHT22;11489;50.834;6.752;2022-09-09T07:11:29;18.00;84.50
22645;DHT22;11489;50.834;6.752;2022-09-09T07:13:57;18.10;84.50
22645;DHT22;11489;50.834;6.752;2022-09-09T07:16:25;18.10;84.40
22645;DHT22;11489;50.834;6.752;2022-09-09T07:18:52;18.20;84.50
22645;DHT22;11489;50.834;6.752;2022-09-09T07:21:18;18.20;84.30
22645;DHT22;11489;50.834;6.752;2022-09-09T07:23:46;18.30;84.10
22645;DHT22;11489;50.834;6.752;2022-09-09T07:26:17;18.40;84.10
22645;DHT22;11489;50.834;6.752;2022-09-09T07:28:45;18.50;83.00
22645;DHT22;11489;50.834;6.752;2022-09-09T07:31:17;18.60;83.40
22645;DHT22;11489;50.834;6.752;2022-09-09T07:33:43;18.60;82.50
22645;DHT22;11489;50.834;6.752;2022-09-09T07:36:14;18.70;83.00
22645;DHT22;11489;50.834;6.752;2022-09-09T07:38:48;18.80;82.40
22645;DHT22;11489;50.834;6.752;2022-09-09T07:41:37;18.90;81.70
22645;DHT22;11489;50.834;6.752;2022-09-09T07:44:05;19.10;80.20
22645;DHT22;11489;50.834;6.752;2022-09-09T07:46:32;19.10;82.90
22645;DHT22;11489;50.834;6.752;2022-09-09T07:48:58;19.30;82.60
22645;DHT22;11489;50.834;6.752;2022-09-09T07:51:29;19.40;82.20
22645;DHT22;11489;50.834;6.752;2022-09-09T07:53:58;19.50;80.80
22645;DHT22;11489;50.834;6.752;2022-09-09T07:56:25;19.60;81.20
22645;DHT22;11489;50.834;6.752;2022-09-09T07:58:52;19.70;81.00
22645;DHT22;11489;50.834;6.752;2022-09-09T08:01:25;19.80;80.60
22645;DHT22;11489;50.834;6.752;2022-09-09T08:03:57;19.80;79.90
22645;DHT22;11489;50.834;6.752;2022-09-09T08:06:28;19.90;79.10
22645;DHT22;11489;50.834;6.752;2022-09-09T08:08:55;19.90;79.80
22645;DHT22;11489;50.834;6.752;2022-09-09T08:11:23;19.90;79.20
22645;DHT22;11489;50.834;6.752;2022-09-09T08:13:50;20.00;79.00
22645;DHT22;11489;50.834;6.752;2022-09-09T08:16:19;20.00;78.80
22645;DHT22;11489;50.834;6.752;2022-09-09T08:18:49;20.10;79.10
22645;DHT22;11489;50.834;6.752;2022-09-09T08:21:18;20.20;79.20
22645;DHT22;11489;50.834;6.752;2022-09-09T08:23:45;20.30;78.90
22645;DHT22;11489;50.834;6.752;2022-09-09T08:26:15;20.40;79.00
22645;DHT22;11489;50.834;6.752;2022-09-09T08:28:42;20.50;78.20
22645;DHT22;11489;50.834;6.752;2022-09-09T08:31:15;20.70;78.30
22645;DHT22;11489;50.834;6.752;2022-09-09T08:33:42;20.80;76.40
22645;DHT22;11489;50.834;6.752;2022-09-09T08:36:11;21.00;77.70
22645;DHT22;11489;50.834;6.752;2022-09-09T08:38:38;21.10;77.10
22645;DHT22;11489;50.834;6.752;2022-09-09T08:43:50;21.20;74.20
22645;DHT22;11489;50.834;6.752;2022-09-09T08:46:28;21.30;76.10
22645;DHT22;11489;50.834;6.752;2022-09-09T08:49:19;21.40;74.50
22645;DHT22;11489;50.834;6.752;2022-09-09T08:51:47;21.50;73.60
22645;DHT22;11489;50.834;6.752;2022-09-09T08:54:15;21.50;76.00
22645;DHT22;11489;50.834;6.752;2022-09-09T08:56:41;21.50;75.70
22645;DHT22;11489;50.834;6.752;2022-09-09T08:59:16;21.50;75.60
22645;DHT22;11489;50.834;6.752;2022-09-09T09:01:54;21.60;74.50
22645;DHT22;11489;50.834;6.752;2022-09-09T09:04:49;21.60;72.80
22645;DHT22;11489;50.834;6.752;2022-09-09T09:10:09;21.50;74.30
22645;DHT22;11489;50.834;6.752;2022-09-09T09:12:41;21.50;72.10
22645;DHT22;11489;50.834;6.752;2022-09-09T09:15:18;21.50;74.10
22645;DHT22;11489;50.834;6.752;2022-09-09T09:17:44;21.50;72.80
22645;DHT22;11489;50.834;6.752;2022-09-09T09:20:22;21.50;74.10
22645;DHT22;11489;50.834;6.752;2022-09-09T09:22:52;21.40;72.30
22645;DHT22;11489;50.834;6.752;2022-09-09T09:25:23;21.30;73.60
22645;DHT22;11489;50.834;6.752;2022-09-09T09:28:10;21.30;73.80
22645;DHT22;11489;50.834;6.752;2022-09-09T09:30:46;21.20;72.20
22645;DHT22;11489;50.834;6.752;2022-09-09T09:36:07;21.10;71.20
22645;DHT22;11489;50.834;6.752;2022-09-09T09:38:34;21.10;74.50
22645;DHT22;11489;50.834;6.752;2022-09-09T09:41:01;21.10;74.70
22645;DHT22;11489;50.834;6.752;2022-09-09T09:43:35;21.10;74.50
22645;DHT22;11489;50.834;6.752;2022-09-09T09:46:03;21.20;73.10
22645;DHT22;11489;50.834;6.752;2022-09-09T09:48:29;21.20;74.00
22645;DHT22;11489;50.834;6.752;2022-09-09T09:51:03;21.20;74.00
22645;DHT22;11489;50.834;6.752;2022-09-09T09:53:41;21.20;72.70
22645;DHT22;11489;50.834;6.752;2022-09-09T09:56:15;21.20;72.40
22645;DHT22;11489;50.834;6.752;2022-09-09T10:01:27;21.20;72.30
22645;DHT22;11489;50.834;6.752;2022-09-09T10:03:57;21.20;71.00
22645;DHT22;11489;50.834;6.752;2022-09-09T10:06:34;21.10;73.00
22645;DHT22;11489;50.834;6.752;2022-09-09T10:09:01;21.10;72.30
22645;DHT22;11489;50.834;6.752;2022-09-09T10:11:47;21.10;73.50
22645;DHT22;11489;50.834;6.752;2022-09-09T10:14:35;21.10;69.90
22645;DHT22;11489;50.834;6.752;2022-09-09T10:19:37;21.10;71.70
22645;DHT22;11489;50.834;6.752;2022-09-09T10:24:54;21.10;70.50
22645;DHT22;11489;50.834;6.752;2022-09-09T10:27:35;21.10;73.10
22645;DHT22;11489;50.834;6.752;2022-09-09T10:30:09;21.10;72.50
22645;DHT22;11489;50.834;6.752;2022-09-09T10:36:13;21.20;72.40
22645;DHT22;11489;50.834;6.752;2022-09-09T10:38:46;21.40;71.50
22645;DHT22;11489;50.834;6.752;2022-09-09T10:49:36;21.80;72.10
22645;DHT22;11489;50.834;6.752;2022-09-09T10:55:06;21.80;71.50
22645;DHT22;11489;50.834;6.752;2022-09-09T10:57:47;21.90;71.10
22645;DHT22;11489;50.834;6.752;2022-09-09T11:03:02;22.10;71.20
22645;DHT22;11489;50.834;6.752;2022-09-09T11:05:46;22.10;69.50
22645;DHT22;11489;50.834;6.752;2022-09-09T11:08:20;22.10;68.40
22645;DHT22;11489;50.834;6.752;2022-09-09T11:11:10;22.10;70.40
22645;DHT22;11489;50.834;6.752;2022-09-09T11:14:22;22.10;68.70
22645;DHT22;11489;50.834;6.752;2022-09-09T11:16:45;22.10;71.80
22645;DHT22;11489;50.834;6.752;2022-09-09T11:19:25;22.10;68.80
22645;DHT22;11489;50.834;6.752;2022-09-09T11:21:52;22.20;70.00
22645;DHT22;11489;50.834;6.752;2022-09-09T11:24:28;22.10;70.50
22645;DHT22;11489;50.834;6.752;2022-09-09T11:27:03;22.10;68.80
22645;DHT22;11489;50.834;6.752;2022-09-09T11:29:57;22.00;69.40
22645;DHT22;11489;50.834;6.752;2022-09-09T11:33:08;22.00;68.30
22645;DHT22;11489;50.834;6.752;2022-09-09T11:38:24;22.00;69.10
22645;DHT22;11489;50.834;6.752;2022-09-09T11:41:05;22.00;69.10
22645;DHT22;11489;50.834;6.752;2022-09-09T11:43:46;22.00;68.10
22645;DHT22;11489;50.834;6.752;2022-09-09T11:46:14;22.10;69.30
22645;DHT22;11489;50.834;6.752;2022-09-09T11:48:45;22.10;70.00
22645;DHT22;11489;50.834;6.752;2022-09-09T11:51:32;22.00;69.40
22645;DHT22;11489;50.834;6.752;2022-09-09T11:54:03;22.00;66.00
22645;DHT22;11489;50.834;6.752;2022-09-09T11:56:45;21.90;69.20
22645;DHT22;11489;50.834;6.752;2022-09-09T11:59:22;21.90;69.90
22645;DHT22;11489;50.834;6.752;2022-09-09T12:01:58;21.80;67.40
22645;DHT22;11489;50.834;6.752;2022-09-09T12:07:03;21.80;70.00
22645;DHT22;11489;50.834;6.752;2022-09-09T12:09:57;21.80;68.70
22645;DHT22;11489;50.834;6.752;2022-09-09T12:12:30;21.80;68.80
22645;DHT22;11489;50.834;6.752;2022-09-09T12:17:23;21.80;70.30
22645;DHT22;11489;50.834;6.752;2022-09-09T12:23:00;21.90;66.90
22645;DHT22;11489;50.834;6.752;2022-09-09T12:31:05;21.80;66.60
22645;DHT22;11489;50.834;6.752;2022-09-09T12:33:39;21.80;66.40
22645;DHT22;11489;50.834;6.752;2022-09-09T12:36:18;21.70;68.70
22645;DHT22;11489;50.834;6.752;2022-09-09T12:38:45;21.70;69.00
22645;DHT22;11489;50.834;6.752;2022-09-09T12:41:22;21.70;70.80
22645;DHT22;11489;50.834;6.752;2022-09-09T12:43:49;21.80;69.70
22645;DHT22;11489;50.834;6.752;2022-09-09T12:46:39;22.00;72.20
22645;DHT22;11489;50.834;6.752;2022-09-09T12:49:31;22.20;68.30
22645;DHT22;11489;50.834;6.752;2022-09-09T12:52:02;22.40;68.10
22645;DHT22;11489;50.834;6.752;2022-09-09T12:54:30;22.60;71.00
22645;DHT22;11489;50.834;6.752;2022-09-09T12:56:55;22.70;71.20
22645;DHT22;11489;50.834;6.752;2022-09-09T12:59:37;22.90;71.20
22645;DHT22;11489;50.834;6.752;2022-09-09T13:02:16;23.10;68.00
22645;DHT22;11489;50.834;6.752;2022-09-09T13:04:43;23.30;68.60
22645;DHT22;11489;50.834;6.752;2022-09-09T13:07:11;23.50;71.20
22645;DHT22;11489;50.834;6.752;2022-09-09T13:09:37;23.70;70.30
22645;DHT22;11489;50.834;6.752;2022-09-09T13:12:04;23.80;69.00
22645;DHT22;11489;50.834;6.752;2022-09-09T13:14:34;23.90;68.80
22645;DHT22;11489;50.834;6.752;2022-09-09T13:17:05;24.00;68.40
22645;DHT22;11489;50.834;6.752;2022-09-09T13:19:37;24.00;68.30
22645;DHT22;11489;50.834;6.752;2022-09-09T13:22:33;24.10;67.20
22645;DHT22;11489;50.834;6.752;2022-09-09T13:25:26;24.10;63.80
22645;DHT22;11489;50.834;6.752;2022-09-09T13:35:45;24.30;64.80
22645;DHT22;11489;50.834;6.752;2022-09-09T13:38:14;24.30;67.70
22645;DHT22;11489;50.834;6.752;2022-09-09T13:40:51;24.30;67.00
22645;DHT22;11489;50.834;6.752;2022-09-09T13:43:21;24.30;67.60
22645;DHT22;11489;50.834;6.752;2022-09-09T13:45:56;24.30;67.10
22645;DHT22;11489;50.834;6.752;2022-09-09T13:48:22;24.30;65.00
22645;DHT22;11489;50.834;6.752;2022-09-09T13:51:02;24.30;66.70
22645;DHT22;11489;50.834;6.752;2022-09-09T13:53:30;24.10;62.80
22645;DHT22;11489;50.834;6.752;2022-09-09T13:55:58;24.00;66.60
22645;DHT22;11489;50.834;6.752;2022-09-09T13:58:25;23.90;66.70
22645;DHT22;11489;50.834;6.752;2022-09-09T14:00:54;23.90;66.80
22645;DHT22;11489;50.834;6.752;2022-09-09T14:03:20;23.80;66.40
22645;DHT22;11489;50.834;6.752;2022-09-09T14:05:46;23.70;66.30
22645;DHT22;11489;50.834;6.752;2022-09-09T14:08:24;23.60;66.10
22645;DHT22;11489;50.834;6.752;2022-09-09T14:10:50;23.40;65.10
22645;DHT22;11489;50.834;6.752;2022-09-09T14:13:16;23.30;66.10
22645;DHT22;11489;50.834;6.752;2022-09-09T14:15:41;23.10;66.10
22645;DHT22;11489;50.834;6.752;2022-09-09T14:18:11;23.00;66.40
22645;DHT22;11489;50.834;6.752;2022-09-09T14:20:37;22.80;66.20
22645;DHT22;11489;50.834;6.752;2022-09-09T14:23:03;22.70;66.40
22645;DHT22;11489;50.834;6.752;2022-09-09T14:25:29;22.40;66.80
22645;DHT22;11489;50.834;6.752;2022-09-09T14:27:54;22.20;66.90
22645;DHT22;11489;50.834;6.752;2022-09-09T14:30:21;21.90;66.70
22645;DHT22;11489;50.834;6.752;2022-09-09T14:32:47;21.50;67.60
22645;DHT22;11489;50.834;6.752;2022-09-09T14:35:22;21.10;68.80
22645;DHT22;11489;50.834;6.752;2022-09-09T14:37:48;20.80;70.40
22645;DHT22;11489;50.834;6.752;2022-09-09T14:40:14;20.40;71.50
22645;DHT22;11489;50.834;6.752;2022-09-09T14:42:40;20.20;72.80
22645;DHT22;11489;50.834;6.752;2022-09-09T14:45:06;20.00;73.90
22645;DHT22;11489;50.834;6.752;2022-09-09T14:47:32;19.90;74.90
22645;DHT22;11489;50.834;6.752;2022-09-09T14:49:58;19.80;75.80
22645;DHT22;11489;50.834;6.752;2022-09-09T14:52:23;19.70;76.30
22645;DHT22;11489;50.834;6.752;2022-09-09T14:54:51;19.70;76.60
22645;DHT22;11489;50.834;6.752;2022-09-09T14:57:16;19.60;76.80
22645;DHT22;11489;50.834;6.752;2022-09-09T14:59:42;19.60;77.00
22645;DHT22;11489;50.834;6.752;2022-09-09T15:02:08;19.60;77.20
22645;DHT22;11489;50.834;6.752;2022-09-09T15:04:34;19.60;77.00
22645;DHT22;11489;50.834;6.752;2022-09-09T15:07:01;19.50;77.10
22645;DHT22;11489;50.834;6.752;2022-09-09T15:09:27;19.60;77.30
22645;DHT22;11489;50.834;6.752;2022-09-09T15:11:52;19.50;77.20
22645;DHT22;11489;50.834;6.752;2022-09-09T15:14:18;19.40;77.30
22645;DHT22;11489;50.834;6.752;2022-09-09T15:16:44;19.30;77.30
22645;DHT22;11489;50.834;6.752;2022-09-09T15:19:09;19.20;77.20
22645;DHT22;11489;50.834;6.752;2022-09-09T15:21:36;19.10;77.40
22645;DHT22;11489;50.834;6.752;2022-09-09T15:24:03;19.00;77.70
22645;DHT22;11489;50.834;6.752;2022-09-09T15:26:30;19.00;78.10
22645;DHT22;11489;50.834;6.752;2022-09-09T15:28:56;18.90;78.20
22645;DHT22;11489;50.834;6.752;2022-09-09T15:31:27;18.70;78.20
22645;DHT22;11489;50.834;6.752;2022-09-09T15:33:58;18.60;78.00
22645;DHT22;11489;50.834;6.752;2022-09-09T15:38:58;18.40;77.60
22645;DHT22;11489;50.834;6.752;2022-09-09T15:41:24;18.20;77.70
22645;DHT22;11489;50.834;6.752;2022-09-09T15:43:52;17.90;78.00
22645;DHT22;11489;50.834;6.752;2022-09-09T15:49:07;17.60;79.10
22645;DHT22;11489;50.834;6.752;2022-09-09T15:51:34;17.40;79.40
22645;DHT22;11489;50.834;6.752;2022-09-09T15:54:01;17.30;80.00
22645;DHT22;11489;50.834;6.752;2022-09-09T15:56:28;17.10;80.70
22645;DHT22;11489;50.834;6.752;2022-09-09T15:58:56;17.00;81.20
22645;DHT22;11489;50.834;6.752;2022-09-09T16:01:23;16.90;81.70
22645;DHT22;11489;50.834;6.752;2022-09-09T16:03:49;16.90;82.30
22645;DHT22;11489;50.834;6.752;2022-09-09T16:06:19;16.80;82.70
22645;DHT22;11489;50.834;6.752;2022-09-09T16:08:51;16.80;83.20
22645;DHT22;11489;50.834;6.752;2022-09-09T16:11:26;16.70;83.70
22645;DHT22;11489;50.834;6.752;2022-09-09T16:13:53;16.70;84.20
22645;DHT22;11489;50.834;6.752;2022-09-09T16:16:22;16.80;84.50
22645;DHT22;11489;50.834;6.752;2022-09-09T16:18:54;16.80;84.80
22645;DHT22;11489;50.834;6.752;2022-09-09T16:21:23;16.90;85.10
22645;DHT22;11489;50.834;6.752;2022-09-09T16:23:52;16.90;85.20
22645;DHT22;11489;50.834;6.752;2022-09-09T16:26:22;16.90;85.30
22645;DHT22;11489;50.834;6.752;2022-09-09T16:28:48;17.00;85.40
22645;DHT22;11489;50.834;6.752;2022-09-09T16:31:19;17.10;85.60
22645;DHT22;11489;50.834;6.752;2022-09-09T16:33:46;17.10;85.60
22645;DHT22;11489;50.834;6.752;2022-09-09T16:36:15;17.20;86.10
22645;DHT22;11489;50.834;6.752;2022-09-09T16:38:41;17.40;86.90
22645;DHT22;11489;50.834;6.752;2022-09-09T16:41:08;17.50;87.20
22645;DHT22;11489;50.834;6.752;2022-09-09T16:43:35;17.70;87.00
22645;DHT22;11489;50.834;6.752;2022-09-09T16:46:02;17.90;86.80
22645;DHT22;11489;50.834;6.752;2022-09-09T16:48:32;18.00;86.70
22645;DHT22;11489;50.834;6.752;2022-09-09T16:51:25;18.20;86.20
22645;DHT22;11489;50.834;6.752;2022-09-09T16:53:52;18.40;84.30
22645;DHT22;11489;50.834;6.752;2022-09-09T16:56:23;18.50;84.10
22645;DHT22;11489;50.834;6.752;2022-09-09T16:58:55;18.50;83.00
22645;DHT22;11489;50.834;6.752;2022-09-09T17:01:28;18.60;82.60
22645;DHT22;11489;50.834;6.752;2022-09-09T17:03:58;18.50;82.10
22645;DHT22;11489;50.834;6.752;2022-09-09T17:06:24;18.40;82.10
22645;DHT22;11489;50.834;6.752;2022-09-09T17:08:58;18.40;82.00
22645;DHT22;11489;50.834;6.752;2022-09-09T17:11:25;18.30;81.80
22645;DHT22;11489;50.834;6.752;2022-09-09T17:13:52;18.20;81.90
22645;DHT22;11489;50.834;6.752;2022-09-09T17:16:20;18.10;81.90
22645;DHT22;11489;50.834;6.752;2022-09-09T17:18:49;18.00;82.00
22645;DHT22;11489;50.834;6.752;2022-09-09T17:21:18;17.90;82.10
22645;DHT22;11489;50.834;6.752;2022-09-09T17:23:45;17.80;82.20
22645;DHT22;11489;50.834;6.752;2022-09-09T17:26:13;17.70;82.30
22645;DHT22;11489;50.834;6.752;2022-09-09T17:28:39;17.60;82.40
22645;DHT22;11489;50.834;6.752;2022-09-09T17:31:06;17.50;82.60
22645;DHT22;11489;50.834;6.752;2022-09-09T17:33:38;17.40;82.80
22645;DHT22;11489;50.834;6.752;2022-09-09T17:38:35;17.30;83.20
22645;DHT22;11489;50.834;6.752;2022-09-09T17:41:24;17.20;83.60
22645;DHT22;11489;50.834;6.752;2022-09-09T17:43:50;17.20;83.70
22645;DHT22;11489;50.834;6.752;2022-09-09T17:46:19;17.10;84.20